createdAt,value
2022-10-19T00:02:22.780Z,335.95
2022-10-19T00:04:49.418Z,336.15
2022-10-19T00:07:16.098Z,337.70
2022-10-19T00:09:44.510Z,334.10
2022-10-19T00:12:12.948Z,328.13
2022-10-19T00:14:39.697Z,329.52
2022-10-19T00:17:06.236Z,331.02
2022-10-19T00:19:32.837Z,325.48
2022-10-19T00:21:59.391Z,325.27
2022-10-19T00:24:26.002Z,320.17
2022-10-19T00:26:52.699Z,313.98
2022-10-19T00:29:19.330Z,314.77
2022-10-19T00:31:46.022Z,314.27
2022-10-19T00:34:12.677Z,311.23
2022-10-19T00:36:40.781Z,308.65
2022-10-19T00:39:11.339Z,304.17
2022-10-19T00:41:38.780Z,305.40
2022-10-19T00:44:27.133Z,309.33
2022-10-19T00:46:53.974Z,306.98
2022-10-19T00:49:24.458Z,311.05
2022-10-19T00:51:55.582Z,309.05
2022-10-19T00:54:23.869Z,305.05
2022-10-19T00:56:53.329Z,303.58
2022-10-19T00:59:22.220Z,307.73
2022-10-19T01:01:49.392Z,303.65
2022-10-19T01:04:16.361Z,299.08
2022-10-19T01:06:43.071Z,299.67
2022-10-19T01:09:09.737Z,302.23
2022-10-19T01:11:48.426Z,304.55
2022-10-19T01:14:30.170Z,299.00
2022-10-19T01:17:03.978Z,300.60
2022-10-19T01:19:52.256Z,302.17
2022-10-19T01:23:00.437Z,297.85
2022-10-19T01:25:36.003Z,295.52
2022-10-19T01:28:31.832Z,299.42
2022-10-19T01:31:23.156Z,292.52
2022-10-19T01:34:13.051Z,303.85
2022-10-19T01:37:00.857Z,297.45
2022-10-19T01:39:44.236Z,297.35
2022-10-19T01:42:26.369Z,297.60
2022-10-19T01:45:05.088Z,293.40
2022-10-19T01:47:38.617Z,299.40
2022-10-19T01:50:27.673Z,293.45
2022-10-19T01:52:56.573Z,295.95
2022-10-19T01:55:25.930Z,296.80
2022-10-19T01:57:58.527Z,302.30
2022-10-19T02:00:26.725Z,305.33
2022-10-19T02:02:54.858Z,308.33
2022-10-19T02:05:27.223Z,309.52
2022-10-19T02:07:59.681Z,308.20
2022-10-19T02:10:28.385Z,309.65
2022-10-19T02:12:56.118Z,312.75
2022-10-19T02:15:27.066Z,322.20
2022-10-19T02:17:57.375Z,316.38
2022-10-19T02:20:24.404Z,319.77
2022-10-19T02:22:51.086Z,320.83
2022-10-19T02:25:18.004Z,310.65
2022-10-19T02:27:44.993Z,306.92
2022-10-19T02:30:14.484Z,303.98
2022-10-19T02:32:42.304Z,304.98
2022-10-19T02:35:10.390Z,303.90
2022-10-19T02:37:37.166Z,304.48
2022-10-19T02:40:04.972Z,311.80
2022-10-19T02:42:40.622Z,308.88
2022-10-19T02:45:29.014Z,312.15
2022-10-19T02:48:01.067Z,322.92
2022-10-19T02:50:27.930Z,321.53
2022-10-19T02:52:54.473Z,323.07
2022-10-19T02:55:21.107Z,320.75
2022-10-19T02:57:47.648Z,317.90
2022-10-19T03:00:14.695Z,314.40
2022-10-19T03:02:42.705Z,319.70
2022-10-19T03:05:09.758Z,327.85
2022-10-19T03:07:36.868Z,328.17
2022-10-19T03:10:03.817Z,323.77
2022-10-19T03:12:30.392Z,320.92
2022-10-19T03:14:56.973Z,327.70
2022-10-19T03:17:23.671Z,323.52
2022-10-19T03:19:50.299Z,323.25
2022-10-19T03:22:16.896Z,319.73
2022-10-19T03:24:43.566Z,329.25
2022-10-19T03:27:10.181Z,329.60
2022-10-19T03:29:36.824Z,322.63
2022-10-19T03:32:03.725Z,316.38
2022-10-19T03:34:30.383Z,313.90
2022-10-19T03:36:59.138Z,308.50
2022-10-19T03:39:26.123Z,314.98
2022-10-19T03:41:52.867Z,325.73
2022-10-19T03:44:19.434Z,321.83
2022-10-19T03:46:46.006Z,321.38
2022-10-19T03:49:12.596Z,327.60
2022-10-19T03:51:39.189Z,325.00
2022-10-19T03:54:08.250Z,325.98
2022-10-19T03:56:36.093Z,319.80
2022-10-19T03:59:05.146Z,331.67
2022-10-19T04:01:40.301Z,329.43
2022-10-19T04:04:11.435Z,317.33
2022-10-19T04:06:41.426Z,312.65
2022-10-19T04:09:11.110Z,315.52
2022-10-19T04:11:38.245Z,311.70
2022-10-19T04:14:05.455Z,322.23
2022-10-19T04:16:32.648Z,319.67
2022-10-19T04:18:59.546Z,321.65
2022-10-19T04:21:31.813Z,326.42
2022-10-19T04:24:03.112Z,327.33
2022-10-19T04:26:30.401Z,334.67
2022-10-19T04:28:58.636Z,343.95
2022-10-19T04:31:26.007Z,334.17
2022-10-19T04:33:52.719Z,327.20
2022-10-19T04:36:19.672Z,328.37
2022-10-19T04:38:46.574Z,333.30
2022-10-19T04:41:17.465Z,342.35
2022-10-19T04:43:47.348Z,344.80
2022-10-19T04:46:17.153Z,342.83
2022-10-19T04:48:44.393Z,341.33
2022-10-19T04:51:11.684Z,327.27
2022-10-19T04:53:39.735Z,328.65
2022-10-19T04:56:09.278Z,329.08
2022-10-19T04:58:35.955Z,337.00
2022-10-19T05:01:15.147Z,341.88
2022-10-19T05:03:41.839Z,329.00
2022-10-19T05:06:09.550Z,330.30
2022-10-19T05:08:36.976Z,327.60
2022-10-19T05:11:05.898Z,331.35
2022-10-19T05:13:33.287Z,337.57
2022-10-19T05:16:01.657Z,332.58
2022-10-19T05:18:28.883Z,331.58
2022-10-19T05:21:21.968Z,330.60
2022-10-19T05:23:52.371Z,317.23
2022-10-19T05:26:21.118Z,308.25
2022-10-19T05:28:56.665Z,322.55
2022-10-19T05:31:29.252Z,327.85
2022-10-19T05:33:56.395Z,327.60
2022-10-19T05:36:28.764Z,327.27
2022-10-19T05:38:57.522Z,327.77
2022-10-19T05:41:25.530Z,331.95
2022-10-19T05:43:59.527Z,338.13
2022-10-19T05:46:28.396Z,334.60
2022-10-19T05:48:56.791Z,330.80
2022-10-19T05:51:24.825Z,324.38
2022-10-19T05:53:52.896Z,316.57
2022-10-19T05:56:25.805Z,317.85
2022-10-19T05:58:52.525Z,311.27
2022-10-19T06:01:20.094Z,314.85
2022-10-19T06:03:50.891Z,321.17
2022-10-19T06:06:17.910Z,322.55
2022-10-19T06:08:45.133Z,315.73
2022-10-19T06:11:14.488Z,312.40
2022-10-19T06:13:42.852Z,310.38
2022-10-19T06:16:10.748Z,321.75
2022-10-19T06:18:38.259Z,308.30
2022-10-19T06:21:07.178Z,301.85
2022-10-19T06:23:35.374Z,307.70
2022-10-19T06:26:04.309Z,301.77
2022-10-19T06:28:30.970Z,297.00
2022-10-19T06:30:58.692Z,304.88
2022-10-19T06:33:26.064Z,303.17
2022-10-19T06:35:52.848Z,301.02
2022-10-19T06:38:19.649Z,305.83
2022-10-19T06:40:46.404Z,300.17
2022-10-19T06:43:13.008Z,306.45
2022-10-19T06:45:39.746Z,313.52
2022-10-19T06:48:07.764Z,310.05
2022-10-19T06:50:35.317Z,306.20
2022-10-19T06:53:05.090Z,302.30
2022-10-19T06:55:31.671Z,306.33
2022-10-19T06:58:01.646Z,309.17
2022-10-19T07:00:29.480Z,307.17
2022-10-19T07:02:58.006Z,313.25
2022-10-19T07:05:24.694Z,302.52
2022-10-19T07:07:51.329Z,301.08
2022-10-19T07:10:18.070Z,301.40
2022-10-19T07:12:44.661Z,307.58
2022-10-19T07:15:11.196Z,303.80
2022-10-19T07:17:37.829Z,306.02
2022-10-19T07:20:04.818Z,304.92
2022-10-19T07:22:31.426Z,316.02
2022-10-19T07:24:58.368Z,315.67
2022-10-19T07:27:25.171Z,307.70
2022-10-19T07:29:51.727Z,308.85
2022-10-19T07:32:18.238Z,301.27
2022-10-19T07:34:44.850Z,301.52
2022-10-19T07:37:11.409Z,306.67
2022-10-19T07:39:38.052Z,302.38
2022-10-19T07:42:04.960Z,311.20
2022-10-19T07:44:31.627Z,310.45
2022-10-19T07:46:58.527Z,303.30
2022-10-19T07:49:25.243Z,296.93
2022-10-19T07:51:54.136Z,303.95
2022-10-19T07:54:21.475Z,301.77
2022-10-19T07:56:48.127Z,297.48
2022-10-19T07:59:16.912Z,297.23
2022-10-19T08:01:44.933Z,299.17
2022-10-19T08:04:59.085Z,290.92
2022-10-19T08:06:58.142Z,286.50
2022-10-19T08:12:15.199Z,283.20
2022-10-19T08:14:42.295Z,288.00
2022-10-19T08:17:11.647Z,281.65
2022-10-19T08:19:43.206Z,278.83
2022-10-19T08:22:10.525Z,285.02
2022-10-19T08:24:37.064Z,283.65
2022-10-19T08:27:03.929Z,272.48
2022-10-19T08:29:31.621Z,278.85
2022-10-19T08:31:59.034Z,296.25
2022-10-19T08:34:25.736Z,301.77
2022-10-19T08:36:52.354Z,299.65
2022-10-19T08:39:18.978Z,288.73
2022-10-19T08:42:06.774Z,290.52
2022-10-19T08:45:14.150Z,292.50
2022-10-19T08:48:18.188Z,285.08
2022-10-19T08:50:46.326Z,287.10
2022-10-19T08:53:22.449Z,285.02
2022-10-19T08:55:53.378Z,282.00
2022-10-19T08:58:31.040Z,277.23
2022-10-19T09:01:11.069Z,270.00
2022-10-19T09:03:56.743Z,275.85
2022-10-19T09:06:31.990Z,271.83
2022-10-19T09:08:59.566Z,257.67
2022-10-19T09:11:31.584Z,268.23
2022-10-19T09:14:18.440Z,258.30
2022-10-19T09:16:46.248Z,260.77
2022-10-19T09:19:22.005Z,257.23
2022-10-19T09:21:54.022Z,249.52
2022-10-19T09:24:32.758Z,241.02
2022-10-19T09:27:01.034Z,234.80
2022-10-19T09:29:39.047Z,230.48
2022-10-19T09:32:14.390Z,230.43
2022-10-19T09:34:46.311Z,218.82
2022-10-19T09:37:21.231Z,217.15
2022-10-19T09:40:16.860Z,218.65
2022-10-19T09:42:43.429Z,195.35
2022-10-19T09:45:34.245Z,174.90
2022-10-19T09:48:07.176Z,159.40
2022-10-19T09:50:43.584Z,146.20
2022-10-19T09:53:19.565Z,121.87
2022-10-19T09:55:53.501Z,75.10
2022-10-19T09:58:20.940Z,26.60
2022-10-19T10:00:55.894Z,4.97
2022-10-19T10:03:32.778Z,2.90
2022-10-19T10:06:04.653Z,2.00
2022-10-19T10:08:35.634Z,2.00
2022-10-19T10:11:07.127Z,1.85
2022-10-19T10:13:40.473Z,1.60
2022-10-19T10:16:10.398Z,1.50
2022-10-19T10:18:50.917Z,2.00
2022-10-19T10:21:26.250Z,1.50
2022-10-19T10:24:20.361Z,1.30
2022-10-19T10:26:51.801Z,1.20
2022-10-19T10:29:24.273Z,1.40
2022-10-19T10:32:15.510Z,1.50
2022-10-19T10:34:53.989Z,1.50
2022-10-19T10:37:29.931Z,1.17
2022-10-19T10:40:01.757Z,1.30
2022-10-19T10:42:43.143Z,1.33
2022-10-19T10:45:23.912Z,1.80
2022-10-19T10:47:52.005Z,1.30
2022-10-19T10:50:22.889Z,1.50
2022-10-19T10:52:58.707Z,1.30
2022-10-19T10:55:26.602Z,1.20
2022-10-19T10:58:05.027Z,1.30
2022-10-19T11:00:34.473Z,1.40
2022-10-19T11:03:19.710Z,1.20
2022-10-19T11:05:49.780Z,1.48
2022-10-19T11:08:25.354Z,1.60
2022-10-19T11:10:57.609Z,1.17
2022-10-19T11:13:30.948Z,1.20
2022-10-19T11:16:22.835Z,1.20
2022-10-19T11:18:56.444Z,1.10
2022-10-19T11:21:47.780Z,1.30
2022-10-19T11:24:35.396Z,1.17
2022-10-19T11:27:20.789Z,1.17
2022-10-19T11:30:29.174Z,1.38
2022-10-19T11:33:14.461Z,1.20
2022-10-19T11:36:33.288Z,1.05
2022-10-19T11:39:02.873Z,1.20
2022-10-19T11:41:39.217Z,1.00
2022-10-19T11:44:38.269Z,1.40
2022-10-19T11:47:43.799Z,1.40
2022-10-19T11:50:33.396Z,1.35
2022-10-19T11:53:15.945Z,1.40
2022-10-19T11:55:54.574Z,1.40
2022-10-19T11:58:49.171Z,1.40
2022-10-19T12:01:46.388Z,1.30
2022-10-19T12:04:12.986Z,1.20
2022-10-19T12:06:54.835Z,1.00
2022-10-19T12:09:48.862Z,1.10
2022-10-19T12:12:27.727Z,1.30
2022-10-19T12:15:03.535Z,1.10
2022-10-19T12:17:36.895Z,1.00
2022-10-19T12:20:19.024Z,1.05
2022-10-19T12:22:49.089Z,0.90
2022-10-19T12:25:17.558Z,0.70
2022-10-19T12:27:47.622Z,0.60
2022-10-19T12:30:20.674Z,0.60
2022-10-19T12:32:54.254Z,0.60
2022-10-19T12:35:21.271Z,0.60
2022-10-19T12:38:19.456Z,0.50
2022-10-19T12:41:12.445Z,0.70
2022-10-19T12:43:53.973Z,0.60
2022-10-19T12:46:42.945Z,0.50
2022-10-19T12:49:43.991Z,0.50
2022-10-19T12:52:12.086Z,0.50
2022-10-19T12:54:40.514Z,0.60
2022-10-19T12:57:25.948Z,0.50
2022-10-19T13:00:01.707Z,0.63
2022-10-19T13:02:35.704Z,0.50
2022-10-19T13:05:03.246Z,0.60
2022-10-19T13:07:33.210Z,0.50
2022-10-19T13:10:04.117Z,0.50
2022-10-19T13:12:43.637Z,1.55
2022-10-19T13:15:35.810Z,1.65
2022-10-19T13:18:04.189Z,1.73
2022-10-19T13:20:30.716Z,1.80
2022-10-19T13:23:00.226Z,1.30
2022-10-19T13:25:40.221Z,1.88
2022-10-19T13:28:06.813Z,1.10
2022-10-19T13:31:03.266Z,1.42
2022-10-19T13:33:44.495Z,1.20
2022-10-19T13:36:12.039Z,2.20
2022-10-19T13:38:43.336Z,1.00
2022-10-19T13:41:15.770Z,2.30
2022-10-19T13:44:18.273Z,2.95
2022-10-19T13:47:00.035Z,1.05
2022-10-19T13:50:15.182Z,1.00
2022-10-19T13:52:41.702Z,1.08
2022-10-19T13:55:37.478Z,1.30
2022-10-19T13:58:34.624Z,1.20
2022-10-19T14:01:38.319Z,1.35
2022-10-19T14:04:20.420Z,1.00
2022-10-19T14:07:04.554Z,1.33
2022-10-19T14:09:52.914Z,1.38
2022-10-19T14:12:27.172Z,2.70
2022-10-19T14:14:53.980Z,1.70
2022-10-19T14:17:28.045Z,1.17
2022-10-19T14:19:57.821Z,2.80
2022-10-19T14:22:36.262Z,1.90
2022-10-19T14:25:05.449Z,1.63
2022-10-19T14:27:33.399Z,1.63
2022-10-19T14:30:00.582Z,1.80
2022-10-19T14:32:29.477Z,1.60
2022-10-19T14:37:31.495Z,2.30
2022-10-19T14:40:07.617Z,2.30
2022-10-19T14:42:52.681Z,1.63
2022-10-19T14:45:26.233Z,2.53
2022-10-19T14:48:04.742Z,2.75
2022-10-19T14:50:40.292Z,2.08
2022-10-19T14:53:47.141Z,2.22
2022-10-19T14:56:38.433Z,2.53
2022-10-19T14:59:19.225Z,2.05
2022-10-19T15:01:55.537Z,3.03
2022-10-19T15:04:28.494Z,2.40
2022-10-19T15:06:57.891Z,2.72
2022-10-19T15:09:37.486Z,3.00
2022-10-19T15:12:20.342Z,3.20
2022-10-19T15:14:49.014Z,4.00
2022-10-19T15:17:30.208Z,4.63
2022-10-19T15:20:04.779Z,4.97
2022-10-19T15:22:32.066Z,6.30
2022-10-19T15:25:08.348Z,8.07
2022-10-19T15:27:37.318Z,8.07
2022-10-19T15:30:27.232Z,11.85
2022-10-19T15:33:02.997Z,13.93
2022-10-19T15:35:32.793Z,12.38
2022-10-19T15:38:02.867Z,18.67
2022-10-19T15:40:40.883Z,11.13
2022-10-19T15:43:35.046Z,19.23
2022-10-19T15:46:13.427Z,13.32
2022-10-19T15:48:51.204Z,8.93
2022-10-19T15:51:23.426Z,15.73
2022-10-19T15:53:55.686Z,5.95
2022-10-19T15:56:24.397Z,4.87
2022-10-19T15:58:52.982Z,4.93
2022-10-19T16:01:22.576Z,5.25
2022-10-19T16:03:49.675Z,8.75
2022-10-19T16:06:17.630Z,10.13
2022-10-19T16:08:47.591Z,7.88
2022-10-19T16:11:16.067Z,8.17
2022-10-19T16:13:45.996Z,9.25
2022-10-19T16:16:23.308Z,6.40
2022-10-19T16:18:50.609Z,11.88
2022-10-19T16:21:19.177Z,7.53
2022-10-19T16:23:46.230Z,5.78
2022-10-19T16:26:16.998Z,10.05
2022-10-19T16:28:44.534Z,7.53
2022-10-19T16:31:12.259Z,9.32
2022-10-19T16:33:44.032Z,11.43
2022-10-19T16:36:11.505Z,10.02
2022-10-19T16:38:38.670Z,7.72
2022-10-19T16:41:10.795Z,8.00
2022-10-19T16:43:46.335Z,5.90
2022-10-19T16:46:15.840Z,7.15
2022-10-19T16:48:42.589Z,5.28
2022-10-19T16:51:31.649Z,6.10
2022-10-19T16:53:58.978Z,5.82
2022-10-19T16:56:29.670Z,7.90
2022-10-19T16:58:59.994Z,7.03
2022-10-19T17:01:27.410Z,5.90
2022-10-19T17:03:54.938Z,5.20
2022-10-19T17:06:22.335Z,7.15
2022-10-19T17:11:38.755Z,6.45
2022-10-19T17:14:08.662Z,5.15
2022-10-19T17:16:36.786Z,5.57
2022-10-19T17:19:11.129Z,7.10
2022-10-19T17:21:39.010Z,6.53
2022-10-19T17:24:08.212Z,5.40
2022-10-19T17:26:38.645Z,5.40
2022-10-19T17:29:16.075Z,5.95
2022-10-19T17:31:43.532Z,5.93
2022-10-19T17:34:10.587Z,5.97
2022-10-19T17:39:10.886Z,5.60
2022-10-19T17:41:37.988Z,7.25
2022-10-19T17:44:05.385Z,6.10
2022-10-19T17:46:35.696Z,6.55
2022-10-19T17:49:03.021Z,6.68
2022-10-19T17:51:31.271Z,6.40
2022-10-19T17:54:00.330Z,6.65
2022-10-19T17:56:27.957Z,5.20
2022-10-19T17:58:55.864Z,6.43
2022-10-19T18:01:22.927Z,6.17
2022-10-19T18:03:50.374Z,6.32
2022-10-19T18:06:25.791Z,6.20
2022-10-19T18:08:54.404Z,7.05
2022-10-19T18:11:25.109Z,5.70
2022-10-19T18:13:54.782Z,6.95
2022-10-19T18:16:33.875Z,7.35
2022-10-19T18:19:02.228Z,6.45
2022-10-19T18:21:34.322Z,6.57
2022-10-19T18:24:02.424Z,6.78
2022-10-19T18:26:32.411Z,8.00
2022-10-19T18:29:00.926Z,6.75
2022-10-19T18:31:30.598Z,6.95
2022-10-19T18:33:59.848Z,6.43
2022-10-19T18:36:26.781Z,7.43
2022-10-19T18:38:55.429Z,6.32
2022-10-19T18:41:22.746Z,8.00
2022-10-19T18:44:05.050Z,8.52
2022-10-19T18:46:34.379Z,8.73
2022-10-19T18:49:01.791Z,8.38
2022-10-19T18:51:29.101Z,8.70
2022-10-19T18:53:55.668Z,8.20
2022-10-19T18:56:23.017Z,9.43
2022-10-19T18:58:50.308Z,9.35
2022-10-19T19:01:27.057Z,9.60
2022-10-19T19:03:57.334Z,10.48
2022-10-19T19:06:28.901Z,10.70
2022-10-19T19:08:57.409Z,10.48
2022-10-19T19:11:26.615Z,16.92
2022-10-19T19:13:59.555Z,60.17
2022-10-19T19:16:28.037Z,41.88
2022-10-19T19:18:55.281Z,18.38
2022-10-19T19:21:28.014Z,13.45
2022-10-19T19:23:57.397Z,14.38
2022-10-19T19:26:26.335Z,14.43
2022-10-19T19:28:53.006Z,13.75
2022-10-19T19:31:20.022Z,14.55
2022-10-19T19:33:47.187Z,13.10
2022-10-19T19:36:15.870Z,14.67
2022-10-19T19:38:43.072Z,13.38
2022-10-19T19:41:13.226Z,13.07
2022-10-19T19:43:40.829Z,12.88
2022-10-19T19:46:12.463Z,11.90
2022-10-19T19:48:41.328Z,13.68
2022-10-19T19:51:13.973Z,11.18
2022-10-19T19:53:40.611Z,10.68
2022-10-19T19:56:08.985Z,8.98
2022-10-19T19:58:36.083Z,8.95
2022-10-19T20:01:13.656Z,9.02
2022-10-19T20:03:41.050Z,9.90
2022-10-19T20:06:08.024Z,8.77
2022-10-19T20:08:36.232Z,8.05
2022-10-19T20:11:05.350Z,8.43
2022-10-19T20:13:32.417Z,7.00
2022-10-19T20:16:02.378Z,8.48
2022-10-19T20:18:29.594Z,8.55
2022-10-19T20:21:01.064Z,8.20
2022-10-19T20:23:28.170Z,7.43
2022-10-19T20:25:56.298Z,7.22
2022-10-19T20:28:24.933Z,8.75
2022-10-19T20:31:05.190Z,9.30
2022-10-19T20:33:34.263Z,13.65
2022-10-19T20:36:12.696Z,15.10
2022-10-19T20:38:40.586Z,19.38
2022-10-19T20:41:09.092Z,22.45
2022-10-19T20:43:37.105Z,29.47
2022-10-19T20:46:04.817Z,48.58
2022-10-19T20:48:31.681Z,76.57
2022-10-19T20:51:15.007Z,75.93
2022-10-19T20:53:47.328Z,81.05
2022-10-19T20:56:16.928Z,105.38
2022-10-19T20:58:44.907Z,106.80
2022-10-19T21:01:17.517Z,115.57
2022-10-19T21:03:48.936Z,114.83
2022-10-19T21:06:15.688Z,99.53
2022-10-19T21:08:42.696Z,102.22
2022-10-19T21:11:22.287Z,99.60
2022-10-19T21:13:52.315Z,99.18
2022-10-19T21:16:21.648Z,103.68
2022-10-19T21:18:49.622Z,101.47
2022-10-19T21:21:28.059Z,100.75
2022-10-19T21:23:57.982Z,118.80
2022-10-19T21:26:26.139Z,112.05
2022-10-19T21:28:53.282Z,120.15
2022-10-19T21:31:21.686Z,131.53
2022-10-19T21:33:48.800Z,172.88
2022-10-19T21:36:15.958Z,159.93
2022-10-19T21:38:42.891Z,161.20
2022-10-19T21:41:15.163Z,159.70
2022-10-19T21:43:42.314Z,167.07
2022-10-19T21:46:13.759Z,176.82
2022-10-19T21:48:40.916Z,198.02
2022-10-19T21:51:16.562Z,199.02
2022-10-19T21:53:43.777Z,195.30
2022-10-19T21:56:10.319Z,209.35
2022-10-19T21:58:36.908Z,195.88
2022-10-19T22:01:06.924Z,180.75
2022-10-19T22:03:33.946Z,185.15
2022-10-19T22:06:00.790Z,187.82
2022-10-19T22:08:27.482Z,199.07
2022-10-19T22:10:54.194Z,199.68
2022-10-19T22:13:20.732Z,200.70
2022-10-19T22:15:47.254Z,196.65
2022-10-19T22:18:13.773Z,213.65
2022-10-19T22:20:40.654Z,209.55
2022-10-19T22:23:08.112Z,208.43
2022-10-19T22:25:35.434Z,198.70
2022-10-19T22:28:01.980Z,204.75
2022-10-19T22:30:28.593Z,206.38
2022-10-19T22:32:55.897Z,206.88
2022-10-19T22:35:22.461Z,218.82
2022-10-19T22:37:49.041Z,222.55
2022-10-19T22:40:15.628Z,225.50
2022-10-19T22:42:42.178Z,227.68
2022-10-19T22:45:08.940Z,222.30
2022-10-19T22:47:35.585Z,230.37
2022-10-19T22:50:02.117Z,235.40
2022-10-19T22:52:28.655Z,232.52
2022-10-19T22:54:55.311Z,227.02
2022-10-19T22:57:21.947Z,219.70
2022-10-19T22:59:48.438Z,208.50
2022-10-19T23:02:15.005Z,187.18
2022-10-19T23:04:41.670Z,191.63
2022-10-19T23:07:08.255Z,183.70
2022-10-19T23:09:34.920Z,177.70
2022-10-19T23:12:01.390Z,187.27
2022-10-19T23:14:27.934Z,180.32
2022-10-19T23:16:54.455Z,176.85
2022-10-19T23:19:21.054Z,170.60
2022-10-19T23:21:47.633Z,174.37
2022-10-19T23:24:14.175Z,179.10
2022-10-19T23:26:40.809Z,182.60
2022-10-19T23:29:07.395Z,179.85
2022-10-19T23:31:33.988Z,179.18
2022-10-19T23:34:00.648Z,181.70
2022-10-19T23:36:29.077Z,176.40
2022-10-19T23:38:57.833Z,172.00
2022-10-19T23:41:24.644Z,159.23
2022-10-19T23:43:51.652Z,161.32
2022-10-19T23:46:18.876Z,153.10
2022-10-19T23:48:45.666Z,148.53
2022-10-19T23:51:15.270Z,135.30
2022-10-19T23:53:44.549Z,134.20
2022-10-19T23:56:17.059Z,126.88
2022-10-19T23:58:43.842Z,113.13
